createdAt,value
2022-12-23T06:00:23.327Z,16.10
2022-12-23T06:05:28.588Z,15.90
2022-12-23T06:10:34.264Z,15.90
2022-12-23T06:15:40.503Z,15.90
2022-12-23T06:20:47.661Z,14.80
2022-12-23T06:25:51.378Z,15.90
2022-12-23T06:30:56.828Z,15.90
2022-12-23T06:36:00.533Z,15.90
2022-12-23T06:41:04.405Z,15.90
2022-12-23T06:46:09.473Z,15.90
2022-12-23T06:51:13.169Z,15.90
2022-12-23T06:56:16.837Z,15.90
2022-12-23T07:01:22.095Z,15.90
2022-12-23T07:06:25.799Z,15.90
2022-12-23T07:11:30.104Z,15.90
2022-12-23T07:16:35.384Z,15.90
2022-12-23T07:21:40.353Z,15.80
2022-12-23T07:26:44.068Z,15.80
2022-12-23T07:31:49.224Z,15.90
2022-12-23T07:36:52.976Z,15.80
2022-12-23T07:42:16.459Z,15.90
2022-12-23T07:47:23.710Z,15.90
2022-12-23T07:52:27.736Z,15.90
2022-12-23T07:57:37.552Z,15.90
2022-12-23T08:02:42.933Z,15.90
2022-12-23T08:07:46.675Z,15.90
2022-12-23T08:12:50.313Z,15.90
2022-12-23T08:17:56.299Z,15.90
2022-12-23T08:23:00.032Z,15.90
2022-12-23T08:28:03.695Z,15.80
2022-12-23T08:33:08.848Z,15.80
2022-12-23T08:38:12.530Z,15.80
2022-12-23T08:43:16.376Z,15.80
2022-12-23T08:48:21.451Z,15.80
2022-12-23T08:53:25.170Z,15.80
2022-12-23T08:58:28.881Z,15.80
2022-12-23T09:03:34.687Z,15.80
2022-12-23T09:08:38.567Z,15.70
2022-12-23T09:13:42.312Z,15.80
2022-12-23T09:18:47.409Z,15.90
2022-12-23T09:23:51.427Z,15.80
2022-12-23T09:28:56.176Z,15.80
2022-12-23T09:34:01.284Z,15.80
2022-12-23T09:39:05.886Z,15.70
2022-12-23T09:44:20.856Z,15.50
2022-12-23T09:49:26.223Z,15.50
2022-12-23T09:54:34.482Z,15.40
2022-12-23T09:59:52.361Z,15.30
2022-12-23T10:05:06.300Z,15.40
2022-12-23T10:10:17.474Z,15.40
2022-12-23T10:15:27.710Z,15.30
2022-12-23T10:20:40.496Z,15.40
2022-12-23T10:25:51.839Z,15.50
2022-12-23T10:31:38.842Z,15.50
2022-12-23T10:36:40.710Z,15.60
2022-12-23T10:41:59.044Z,15.70
2022-12-23T10:47:15.535Z,15.80
2022-12-23T10:52:23.013Z,15.90
2022-12-23T10:57:26.724Z,15.90
2022-12-23T11:02:46.145Z,16.00
2022-12-23T11:07:51.586Z,16.10
2022-12-23T11:12:55.820Z,16.20
2022-12-23T11:18:06.086Z,16.20
2022-12-23T11:23:25.572Z,16.30
2022-12-23T11:28:30.290Z,16.50
2022-12-23T11:33:36.440Z,16.50
2022-12-23T11:38:52.340Z,16.60
2022-12-23T11:43:59.615Z,16.60
2022-12-23T11:49:17.494Z,16.60
2022-12-23T11:54:22.581Z,16.80
2022-12-23T11:59:36.035Z,16.80
2022-12-23T12:04:42.195Z,16.80
2022-12-23T12:09:47.356Z,16.90
2022-12-23T12:14:54.442Z,17.00
2022-12-23T12:20:04.778Z,16.90
2022-12-23T12:25:18.912Z,16.80
2022-12-23T12:30:23.269Z,16.70
2022-12-23T12:35:36.015Z,16.70
2022-12-23T12:40:44.582Z,16.80
2022-12-23T12:45:54.054Z,16.70
2022-12-23T12:51:05.669Z,16.60
2022-12-23T12:56:23.900Z,16.60
2022-12-23T13:01:39.206Z,16.50
2022-12-23T13:06:49.348Z,16.40
2022-12-23T13:12:03.009Z,16.40
2022-12-23T13:17:13.635Z,16.30
2022-12-23T13:22:18.667Z,16.30
2022-12-23T13:27:30.744Z,16.20
2022-12-23T13:32:59.450Z,16.20
2022-12-23T13:38:18.359Z,16.10
2022-12-23T13:43:26.421Z,16.10
2022-12-23T13:48:37.825Z,16.00
2022-12-23T13:54:03.961Z,15.90
2022-12-23T13:59:12.577Z,15.90
2022-12-23T14:04:35.039Z,15.90
2022-12-23T14:09:40.998Z,15.80
2022-12-23T14:15:03.971Z,15.80
2022-12-23T14:20:26.485Z,15.80
2022-12-23T14:25:58.921Z,15.80
2022-12-23T14:31:06.353Z,15.80
2022-12-23T14:36:24.502Z,15.70
2022-12-23T14:41:39.164Z,15.70
2022-12-23T14:46:59.855Z,15.70
2022-12-23T14:52:45.149Z,15.70
2022-12-23T14:57:50.129Z,15.70
2022-12-23T15:02:58.340Z,15.60
2022-12-23T15:08:02.350Z,15.60
2022-12-23T15:18:14.194Z,15.50
2022-12-23T15:23:18.603Z,15.50
2022-12-23T15:28:24.600Z,15.50
2022-12-23T15:34:02.089Z,15.40
2022-12-23T15:38:59.538Z,15.30
2022-12-23T15:44:03.337Z,15.30
2022-12-23T15:49:18.865Z,15.30
2022-12-23T15:54:25.747Z,15.20
2022-12-23T15:59:34.151Z,15.10
2022-12-23T16:04:39.291Z,15.10
2022-12-23T16:09:42.962Z,15.10
2022-12-23T16:14:54.075Z,15.00
2022-12-23T16:20:19.876Z,15.00
2022-12-23T16:25:27.607Z,15.00
2022-12-23T16:30:34.164Z,14.90
2022-12-23T16:35:41.907Z,14.90
2022-12-23T16:40:47.861Z,14.90
2022-12-23T16:45:55.050Z,14.80
2022-12-23T16:51:01.313Z,14.70
2022-12-23T16:56:11.261Z,14.70
2022-12-23T17:01:16.342Z,14.70
2022-12-23T17:06:21.788Z,14.60
2022-12-23T17:11:31.061Z,14.60
2022-12-23T17:16:34.811Z,14.50
2022-12-23T17:21:40.981Z,14.50
2022-12-23T17:26:44.727Z,14.50
2022-12-23T17:31:49.560Z,14.40
2022-12-23T17:36:54.748Z,14.40
2022-12-23T17:41:58.507Z,14.40
2022-12-23T17:47:02.469Z,14.50
2022-12-23T17:52:07.769Z,14.40
2022-12-23T17:57:19.283Z,14.40
2022-12-23T18:02:25.412Z,14.40
2022-12-23T18:07:30.576Z,14.30
2022-12-23T18:12:38.608Z,14.30
2022-12-23T18:17:42.297Z,14.30
2022-12-23T18:22:48.434Z,14.30
2022-12-23T18:27:53.361Z,14.30
2022-12-23T18:32:57.482Z,14.30
2022-12-23T18:38:03.395Z,14.40
2022-12-23T18:43:08.573Z,14.30
2022-12-23T18:48:12.740Z,14.30
2022-12-23T18:53:24.520Z,14.30
2022-12-23T18:58:29.122Z,14.20
2022-12-23T19:03:33.284Z,14.20
2022-12-23T19:08:38.778Z,14.20
2022-12-23T19:13:42.763Z,14.20
2022-12-23T19:18:47.176Z,14.20
2022-12-23T19:23:52.214Z,14.20
2022-12-23T19:28:56.000Z,14.10
2022-12-23T19:34:00.715Z,14.10
2022-12-23T19:39:05.737Z,14.10
2022-12-23T19:44:09.705Z,14.10
2022-12-23T19:49:19.528Z,14.10
2022-12-23T19:54:25.556Z,14.10
2022-12-23T19:59:29.257Z,14.10
2022-12-23T20:04:32.940Z,14.00
2022-12-23T20:09:38.602Z,14.10
2022-12-23T20:14:42.345Z,14.10
2022-12-23T20:19:46.631Z,14.00
2022-12-23T20:24:51.705Z,14.00
2022-12-23T20:29:55.386Z,14.00
2022-12-23T20:34:59.213Z,14.00
2022-12-23T20:40:04.466Z,14.00
2022-12-23T20:45:08.864Z,14.10
2022-12-23T20:50:12.617Z,14.10
2022-12-23T20:55:17.759Z,14.20
2022-12-23T21:00:21.749Z,14.10
2022-12-23T21:05:25.429Z,14.10
2022-12-23T21:10:30.601Z,14.10
2022-12-23T21:15:34.644Z,14.10
2022-12-23T21:20:38.448Z,14.10
2022-12-23T21:25:43.613Z,14.10
2022-12-23T21:30:47.298Z,14.10
2022-12-23T21:35:51.027Z,14.10
2022-12-23T21:41:02.766Z,14.00
2022-12-23T21:46:08.726Z,14.00
2022-12-23T21:51:15.281Z,14.00
2022-12-23T21:56:22.428Z,14.00
2022-12-23T22:01:26.939Z,14.00
2022-12-23T22:06:32.826Z,14.00
2022-12-23T22:11:39.241Z,14.00
2022-12-23T22:16:43.178Z,14.00
2022-12-23T22:21:47.162Z,14.00
2022-12-23T22:26:52.937Z,14.00
2022-12-23T22:31:56.770Z,14.00
2022-12-23T22:37:00.538Z,13.90
2022-12-23T22:42:06.240Z,13.90
2022-12-23T22:47:10.059Z,13.80
2022-12-23T22:52:13.930Z,13.80
2022-12-23T22:57:19.006Z,13.90
2022-12-23T23:02:22.840Z,13.90
2022-12-23T23:07:26.578Z,13.90
2022-12-23T23:12:31.651Z,13.90
2022-12-23T23:17:35.329Z,13.90
2022-12-23T23:22:39.089Z,13.90
2022-12-23T23:27:44.258Z,13.90
